createdAt,value
2022-11-25T00:01:34.107Z,98205.69
2022-11-25T00:04:01.750Z,98204.03
2022-11-25T00:06:34.933Z,98210.47
2022-11-25T00:09:09.699Z,98217.22
2022-11-25T00:11:39.312Z,98212.59
2022-11-25T00:14:08.265Z,98209.13
2022-11-25T00:16:35.358Z,98218.41
2022-11-25T00:19:02.359Z,98218.00
2022-11-25T00:21:33.311Z,98218.75
2022-11-25T00:24:06.600Z,98210.94
2022-11-25T00:26:35.664Z,98207.03
2022-11-25T00:29:06.873Z,98203.13
2022-11-25T00:31:38.290Z,98203.91
2022-11-25T00:34:05.858Z,98206.53
2022-11-25T00:36:35.759Z,98212.09
2022-11-25T00:39:08.261Z,98214.09
2022-11-25T00:41:53.908Z,98209.31
2022-11-25T00:44:37.823Z,98215.00
2022-11-25T00:47:18.784Z,98219.13
2022-11-25T00:49:51.864Z,98218.94
2022-11-25T00:52:22.312Z,98218.94
2022-11-25T00:54:50.424Z,98223.47
2022-11-25T00:57:21.045Z,98218.25
2022-11-25T00:59:48.876Z,98214.59
2022-11-25T01:02:18.326Z,98213.00
2022-11-25T01:04:46.183Z,98211.69
2022-11-25T01:07:16.346Z,98216.94
2022-11-25T01:09:43.374Z,98223.94
2022-11-25T01:12:10.543Z,98226.88
2022-11-25T01:14:38.349Z,98224.53
2022-11-25T01:17:05.632Z,98227.84
2022-11-25T01:19:33.171Z,98222.13
2022-11-25T01:22:00.754Z,98222.13
2022-11-25T01:24:28.077Z,98223.78
2022-11-25T01:26:55.984Z,98227.53
2022-11-25T01:29:24.240Z,98221.44
2022-11-25T01:31:56.316Z,98228.72
2022-11-25T01:34:26.608Z,98232.13
2022-11-25T01:36:57.576Z,98230.16
2022-11-25T01:39:32.080Z,98228.97
2022-11-25T01:42:00.961Z,98221.41
2022-11-25T01:44:31.246Z,98211.47
2022-11-25T01:46:58.962Z,98214.94
2022-11-25T01:49:37.315Z,98214.31
2022-11-25T01:52:15.529Z,98209.81
2022-11-25T01:54:55.226Z,98203.75
2022-11-25T01:57:47.025Z,98198.84
2022-11-25T02:00:18.325Z,98197.34
2022-11-25T02:02:46.893Z,98200.34
2022-11-25T02:05:20.050Z,98195.16
2022-11-25T02:07:51.382Z,98190.78
2022-11-25T02:10:25.820Z,98192.97
2022-11-25T02:12:53.429Z,98191.63
2022-11-25T02:15:21.970Z,98193.16
2022-11-25T02:17:49.719Z,98185.81
2022-11-25T02:20:20.966Z,98194.81
2022-11-25T02:23:15.439Z,98190.91
2022-11-25T02:25:46.853Z,98196.03
2022-11-25T02:28:27.651Z,98197.56
2022-11-25T02:30:55.199Z,98202.72
2022-11-25T02:33:24.128Z,98193.22
2022-11-25T02:35:57.288Z,98201.81
2022-11-25T02:38:39.785Z,98202.94
2022-11-25T02:41:17.012Z,98200.91
2022-11-25T02:43:47.441Z,98211.38
2022-11-25T02:46:22.273Z,98215.13
2022-11-25T02:49:09.303Z,98212.19
2022-11-25T02:51:37.475Z,98217.31
2022-11-25T02:54:05.428Z,98220.41
2022-11-25T02:56:34.746Z,98213.53
2022-11-25T02:59:02.152Z,98210.56
2022-11-25T03:01:31.363Z,98217.63
2022-11-25T03:03:59.393Z,98211.28
2022-11-25T03:06:29.665Z,98204.06
2022-11-25T03:08:57.421Z,98194.78
2022-11-25T03:11:43.528Z,98188.00
2022-11-25T03:14:11.102Z,98191.66
2022-11-25T03:16:38.589Z,98181.16
2022-11-25T03:19:06.045Z,98182.38
2022-11-25T03:21:33.415Z,98190.41
2022-11-25T03:24:01.098Z,98191.63
2022-11-25T03:26:28.411Z,98186.28
2022-11-25T03:28:55.747Z,98190.56
2022-11-25T03:31:26.225Z,98180.00
2022-11-25T03:33:55.299Z,98184.66
2022-11-25T03:36:22.677Z,98173.84
2022-11-25T03:38:50.057Z,98174.44
2022-11-25T03:41:17.829Z,98179.75
2022-11-25T03:43:46.030Z,98176.84
2022-11-25T03:46:16.079Z,98174.28
2022-11-25T03:48:43.645Z,98170.31
2022-11-25T03:51:11.051Z,98168.81
2022-11-25T03:53:38.520Z,98173.78
2022-11-25T03:56:08.126Z,98175.19
2022-11-25T03:58:35.888Z,98173.25
2022-11-25T04:01:05.415Z,98179.00
2022-11-25T04:03:32.664Z,98172.03
2022-11-25T04:06:00.283Z,98169.03
2022-11-25T04:08:28.835Z,98164.13
2022-11-25T04:10:56.340Z,98165.25
2022-11-25T04:13:29.607Z,98168.09
2022-11-25T04:15:57.490Z,98171.00
2022-11-25T04:18:26.168Z,98170.72
2022-11-25T04:20:56.471Z,98165.31
2022-11-25T04:23:23.830Z,98170.84
2022-11-25T04:26:01.898Z,98174.47
2022-11-25T04:28:35.057Z,98182.84
2022-11-25T04:31:07.547Z,98177.59
2022-11-25T04:33:37.529Z,98171.31
2022-11-25T04:36:04.743Z,98166.94
2022-11-25T04:38:32.183Z,98163.50
2022-11-25T04:40:59.762Z,98162.75
2022-11-25T04:43:28.592Z,98169.94
2022-11-25T04:46:13.895Z,98165.00
2022-11-25T04:48:43.113Z,98163.50
2022-11-25T04:51:10.633Z,98170.56
2022-11-25T04:53:38.294Z,98175.34
2022-11-25T04:56:07.153Z,98184.84
2022-11-25T04:59:00.679Z,98177.31
2022-11-25T05:01:28.361Z,98175.03
2022-11-25T05:04:03.874Z,98181.94
2022-11-25T05:06:31.217Z,98171.28
2022-11-25T05:08:58.578Z,98166.34
2022-11-25T05:11:27.076Z,98163.88
2022-11-25T05:13:54.573Z,98161.25
2022-11-25T05:16:22.140Z,98161.53
2022-11-25T05:18:49.515Z,98156.00
2022-11-25T05:21:17.775Z,98171.03
2022-11-25T05:23:52.959Z,98173.28
2022-11-25T05:27:12.571Z,98173.47
2022-11-25T05:29:40.146Z,98178.22
2022-11-25T05:32:09.379Z,98174.84
2022-11-25T05:34:37.830Z,98187.66
2022-11-25T05:37:05.907Z,98178.84
2022-11-25T05:39:34.965Z,98178.97
2022-11-25T05:42:39.541Z,98175.53
2022-11-25T05:45:08.986Z,98176.94
2022-11-25T05:47:36.815Z,98185.63
2022-11-25T05:50:06.091Z,98182.34
2022-11-25T05:52:33.530Z,98182.59
2022-11-25T05:55:02.171Z,98188.41
2022-11-25T05:57:29.504Z,98185.66
2022-11-25T06:00:01.978Z,98195.81
2022-11-25T06:02:51.464Z,98194.81
2022-11-25T06:05:19.908Z,98200.75
2022-11-25T06:07:47.409Z,98200.75
2022-11-25T06:10:18.192Z,98206.84
2022-11-25T06:12:45.714Z,98207.56
2022-11-25T06:15:14.919Z,98210.75
2022-11-25T06:17:42.683Z,98218.47
2022-11-25T06:20:18.822Z,98226.19
2022-11-25T06:22:46.638Z,98229.91
2022-11-25T06:25:15.226Z,98231.94
2022-11-25T06:28:11.127Z,98235.28
2022-11-25T06:30:35.389Z,98230.44
2022-11-25T06:33:22.163Z,98229.94
2022-11-25T06:35:50.251Z,98227.91
2022-11-25T06:38:17.608Z,98235.88
2022-11-25T06:40:44.973Z,98234.81
2022-11-25T06:43:12.457Z,98236.50
2022-11-25T06:45:39.735Z,98235.88
2022-11-25T06:48:07.161Z,98239.16
2022-11-25T06:51:31.149Z,98245.97
2022-11-25T06:57:28.043Z,98257.06
2022-11-25T06:59:56.215Z,98258.31
2022-11-25T07:03:15.682Z,98260.94
2022-11-25T07:05:52.723Z,98252.16
2022-11-25T07:08:41.249Z,98251.84
2022-11-25T07:12:21.779Z,98251.16
2022-11-25T07:15:10.552Z,98252.28
2022-11-25T07:17:57.911Z,98256.53
2022-11-25T07:32:11.273Z,98257.47
2022-11-25T07:53:27.747Z,98292.59
2022-11-25T07:56:22.958Z,98299.34
2022-11-25T07:59:15.858Z,98298.31
2022-11-25T08:02:03.498Z,98291.16
2022-11-25T08:04:51.017Z,98293.34
2022-11-25T08:07:38.528Z,98294.66
2022-11-25T08:10:25.989Z,98300.94
2022-11-25T08:13:12.337Z,98295.31
2022-11-25T08:16:00.511Z,98307.72
2022-11-25T08:18:47.168Z,98299.28
2022-11-25T08:21:33.236Z,98298.00
2022-11-25T08:24:33.866Z,98294.78
2022-11-25T08:27:20.099Z,98309.28
2022-11-25T08:30:13.606Z,98305.44
2022-11-25T08:33:00.807Z,98309.94
2022-11-25T08:36:30.254Z,98323.22
2022-11-25T08:42:27.955Z,98326.19
2022-11-25T08:45:14.435Z,98334.16
2022-11-25T08:48:01.054Z,98327.75
2022-11-25T08:50:51.723Z,98329.47
2022-11-25T08:53:46.886Z,98318.00
2022-11-25T08:56:32.750Z,98315.38
2022-11-25T08:59:19.100Z,98297.72
2022-11-25T09:02:06.565Z,98295.03
2022-11-25T09:04:59.727Z,98302.28
2022-11-25T09:07:46.075Z,98321.03
2022-11-25T09:10:33.305Z,98313.41
2022-11-25T09:13:19.277Z,98317.16
2022-11-25T09:16:13.405Z,98326.72
2022-11-25T09:19:00.139Z,98324.44
2022-11-25T09:21:46.049Z,98330.56
2022-11-25T09:24:38.451Z,98332.78
2022-11-25T09:27:27.293Z,98327.44
2022-11-25T09:30:14.299Z,98331.94
2022-11-25T09:33:00.132Z,98336.84
2022-11-25T09:35:47.336Z,98343.25
2022-11-25T09:38:42.777Z,98338.50
2022-11-25T09:41:54.944Z,98349.47
2022-11-25T09:45:02.502Z,98343.47
2022-11-25T09:48:29.648Z,98343.25
2022-11-25T09:51:58.844Z,98341.94
2022-11-25T09:54:59.134Z,98346.56
2022-11-25T09:58:46.649Z,98363.50
2022-11-25T10:01:32.789Z,98357.63
2022-11-25T10:04:47.458Z,98353.75
2022-11-25T10:07:46.483Z,98347.31
2022-11-25T10:12:31.055Z,98356.44
2022-11-25T10:15:23.810Z,98351.44
2022-11-25T10:18:00.209Z,98352.84
2022-11-25T10:20:32.643Z,98345.59
2022-11-25T10:23:09.811Z,98344.28
2022-11-25T10:25:46.510Z,98344.25
2022-11-25T10:28:30.626Z,98347.59
2022-11-25T10:31:19.693Z,98343.38
2022-11-25T10:33:49.605Z,98339.00
2022-11-25T10:36:19.203Z,98340.59
2022-11-25T10:39:12.540Z,98341.44
2022-11-25T10:42:10.160Z,98344.50
2022-11-25T10:44:40.763Z,98344.16
2022-11-25T10:47:34.967Z,98364.63
2022-11-25T10:50:20.320Z,98365.72
2022-11-25T10:52:54.843Z,98368.84
2022-11-25T10:55:28.654Z,98363.56
2022-11-25T10:57:56.376Z,98355.78
2022-11-25T11:00:31.430Z,98344.16
2022-11-25T11:03:01.758Z,98370.41
2022-11-25T11:05:30.676Z,98376.06
2022-11-25T11:08:12.665Z,98374.78
2022-11-25T11:10:42.659Z,98367.78
2022-11-25T11:13:33.144Z,98378.31
2022-11-25T11:16:00.542Z,98372.38
2022-11-25T11:18:41.225Z,98385.88
2022-11-25T11:21:23.600Z,98390.28
2022-11-25T11:23:55.533Z,98375.25
2022-11-25T11:26:31.543Z,98377.41
2022-11-25T11:29:17.107Z,98387.81
2022-11-25T11:32:03.850Z,98409.03
2022-11-25T11:35:07.060Z,98407.84
2022-11-25T11:37:54.410Z,98412.50
2022-11-25T11:40:37.130Z,98415.97
2022-11-25T11:43:26.201Z,98419.50
2022-11-25T11:46:26.805Z,98434.28
2022-11-25T11:49:29.077Z,98439.00
2022-11-25T11:52:24.027Z,98437.22
2022-11-25T11:54:59.053Z,98445.25
2022-11-25T11:57:45.437Z,98433.91
2022-11-25T12:00:15.159Z,98435.56
2022-11-25T12:02:56.374Z,98439.22
2022-11-25T12:05:28.901Z,98446.50
2022-11-25T12:08:04.248Z,98442.75
2022-11-25T12:10:41.355Z,98441.25
2022-11-25T12:13:34.110Z,98441.13
2022-11-25T12:16:10.065Z,98449.13
2022-11-25T12:19:16.212Z,98452.06
2022-11-25T12:22:00.504Z,98454.03
2022-11-25T12:24:39.499Z,98458.22
2022-11-25T12:27:36.558Z,98460.97
2022-11-25T12:30:20.070Z,98453.53
2022-11-25T12:32:56.538Z,98454.78
2022-11-25T12:36:04.793Z,98462.59
2022-11-25T12:38:45.745Z,98465.13
2022-11-25T12:41:41.465Z,98473.59
2022-11-25T12:44:25.789Z,98471.06
2022-11-25T12:46:55.883Z,98477.28
2022-11-25T12:49:32.712Z,98475.28
2022-11-25T12:52:53.377Z,98477.91
2022-11-25T12:55:23.088Z,98475.16
2022-11-25T12:58:33.059Z,98475.41
2022-11-25T13:01:30.414Z,98491.72
2022-11-25T13:04:01.023Z,98499.38
2022-11-25T13:06:34.732Z,98498.97
2022-11-25T13:09:33.297Z,98496.28
2022-11-25T13:12:49.516Z,98515.34
2022-11-25T13:15:29.578Z,98526.75
2022-11-25T13:18:11.175Z,98525.44
2022-11-25T13:20:56.448Z,98530.41
2022-11-25T13:23:29.618Z,98540.63
2022-11-25T13:26:48.257Z,98530.88
2022-11-25T13:29:15.466Z,98542.88
2022-11-25T13:31:59.931Z,98550.81
2022-11-25T13:34:31.117Z,98550.31
2022-11-25T13:37:22.875Z,98544.53
2022-11-25T13:39:49.815Z,98543.31
2022-11-25T13:42:24.687Z,98541.75
2022-11-25T13:44:59.273Z,98551.00
2022-11-25T13:47:48.437Z,98554.28
2022-11-25T13:50:21.545Z,98543.34
2022-11-25T13:52:59.031Z,98554.75
2022-11-25T13:55:39.114Z,98557.81
2022-11-25T13:58:24.204Z,98558.50
2022-11-25T14:00:57.277Z,98558.44
2022-11-25T14:03:24.910Z,98564.66
2022-11-25T14:06:23.146Z,98568.59
2022-11-25T14:09:35.367Z,98567.72
2022-11-25T14:12:30.442Z,98588.59
2022-11-25T14:15:04.771Z,98581.88
2022-11-25T14:18:10.337Z,98585.91
2022-11-25T14:21:31.530Z,98593.81
2022-11-25T14:24:10.060Z,98591.41
2022-11-25T14:26:55.621Z,98602.19
2022-11-25T14:29:32.125Z,98597.19
2022-11-25T14:32:40.619Z,98612.56
2022-11-25T14:35:41.678Z,98605.22
2022-11-25T14:38:32.865Z,98612.66
2022-11-25T14:41:13.195Z,98611.16
2022-11-25T14:43:49.995Z,98605.81
2022-11-25T14:46:21.546Z,98611.31
2022-11-25T14:49:07.656Z,98611.22
2022-11-25T14:51:42.332Z,98613.94
2022-11-25T14:54:10.156Z,98617.31
2022-11-25T14:56:37.918Z,98624.31
2022-11-25T14:59:05.373Z,98614.59
2022-11-25T15:01:35.023Z,98614.44
2022-11-25T15:04:05.154Z,98624.31
2022-11-25T15:06:42.509Z,98630.47
2022-11-25T15:09:20.236Z,98634.31
2022-11-25T15:11:47.820Z,98635.22
2022-11-25T15:14:30.470Z,98625.09
2022-11-25T15:16:58.751Z,98642.16
2022-11-25T15:19:33.851Z,98646.19
2022-11-25T15:22:24.073Z,98633.13
2022-11-25T15:24:56.235Z,98636.56
2022-11-25T15:27:28.871Z,98647.00
2022-11-25T15:29:57.305Z,98654.66
2022-11-25T15:32:33.780Z,98660.59
2022-11-25T15:35:01.771Z,98670.03
2022-11-25T15:37:29.325Z,98683.81
2022-11-25T15:40:30.146Z,98684.38
2022-11-25T15:43:03.132Z,98691.19
2022-11-25T15:45:54.792Z,98694.19
2022-11-25T15:48:45.272Z,98696.84
2022-11-25T15:51:41.481Z,98708.94
2022-11-25T15:54:25.829Z,98704.28
2022-11-25T15:57:35.892Z,98701.19
2022-11-25T16:00:25.054Z,98694.97
2022-11-25T16:02:58.416Z,98695.94
2022-11-25T16:05:34.654Z,98708.63
2022-11-25T16:08:24.329Z,98718.03
2022-11-25T16:10:59.179Z,98715.94
2022-11-25T16:13:30.195Z,98708.03
2022-11-25T16:16:29.555Z,98709.25
2022-11-25T16:19:02.526Z,98711.81
2022-11-25T16:21:35.545Z,98704.94
2022-11-25T16:24:05.507Z,98706.47
2022-11-25T16:26:37.031Z,98712.84
2022-11-25T16:29:16.575Z,98710.59
2022-11-25T16:31:44.234Z,98713.38
2022-11-25T16:34:18.924Z,98727.38
2022-11-25T16:36:47.269Z,98724.41
2022-11-25T16:39:14.731Z,98725.09
2022-11-25T16:41:42.883Z,98717.50
2022-11-25T16:44:18.938Z,98716.28
2022-11-25T16:46:46.629Z,98727.78
2022-11-25T16:49:15.891Z,98737.75
2022-11-25T16:51:43.210Z,98755.78
2022-11-25T16:54:10.678Z,98752.16
2022-11-25T16:56:41.226Z,98759.13
2022-11-25T16:59:32.036Z,98761.97
2022-11-25T17:02:00.644Z,98757.28
2022-11-25T17:04:28.012Z,98751.41
2022-11-25T17:07:30.679Z,98748.81
2022-11-25T17:09:44.276Z,98737.41
2022-11-25T17:12:16.991Z,98739.63
2022-11-25T17:14:45.176Z,98746.47
2022-11-25T17:17:24.469Z,98751.91
2022-11-25T17:20:21.536Z,98757.47
2022-11-25T17:22:49.191Z,98766.50
2022-11-25T17:25:16.779Z,98767.88
2022-11-25T17:27:46.273Z,98774.09
2022-11-25T17:30:23.398Z,98770.66
2022-11-25T17:33:00.841Z,98770.88
2022-11-25T17:35:28.394Z,98776.00
2022-11-25T17:38:01.644Z,98782.84
2022-11-25T17:40:29.068Z,98779.44
2022-11-25T17:42:56.383Z,98780.41
2022-11-25T17:45:23.819Z,98783.88
2022-11-25T17:47:51.156Z,98781.41
2022-11-25T17:50:26.066Z,98796.28
2022-11-25T17:52:53.580Z,98810.41
2022-11-25T17:55:22.775Z,98818.16
2022-11-25T17:57:50.457Z,98811.47
2022-11-25T18:00:22.630Z,98812.09
2022-11-25T18:02:49.895Z,98813.66
2022-11-25T18:05:26.720Z,98818.91
2022-11-25T18:07:54.140Z,98824.50
2022-11-25T18:10:25.664Z,98820.72
2022-11-25T18:12:55.519Z,98830.78
2022-11-25T18:15:26.575Z,98835.84
2022-11-25T18:18:06.835Z,98841.84
2022-11-25T18:20:34.301Z,98847.84
2022-11-25T18:23:01.758Z,98852.72
2022-11-25T18:25:33.982Z,98860.78
2022-11-25T18:28:01.463Z,98860.66
2022-11-25T18:30:34.843Z,98860.13
2022-11-25T18:33:05.428Z,98863.69
2022-11-25T18:35:36.485Z,98869.13
2022-11-25T18:38:05.216Z,98871.31
2022-11-25T18:40:32.827Z,98878.38
2022-11-25T18:43:04.710Z,98881.66
2022-11-25T18:45:40.463Z,98891.69
2022-11-25T18:48:16.092Z,98887.50
2022-11-25T18:50:44.437Z,98885.59
2022-11-25T18:53:11.855Z,98893.69
2022-11-25T18:55:39.451Z,98890.13
2022-11-25T18:58:32.682Z,98892.63
2022-11-25T19:01:06.063Z,98896.75
2022-11-25T19:03:33.097Z,98902.00
2022-11-25T19:06:01.756Z,98903.31
2022-11-25T19:08:29.639Z,98902.22
2022-11-25T19:10:57.162Z,98908.66
2022-11-25T19:13:33.174Z,98910.19
2022-11-25T19:16:08.355Z,98913.50
2022-11-25T19:18:35.963Z,98917.56
2022-11-25T19:21:03.188Z,98918.06
2022-11-25T19:23:30.538Z,98925.78
2022-11-25T19:26:07.540Z,98932.22
2022-11-25T19:28:35.228Z,98929.00
2022-11-25T19:31:04.777Z,98943.00
2022-11-25T19:33:36.829Z,98959.03
2022-11-25T19:36:05.440Z,98960.97
2022-11-25T19:38:33.125Z,98961.53
2022-11-25T19:41:00.430Z,98963.22
2022-11-25T19:43:27.976Z,98959.88
2022-11-25T19:45:57.164Z,98970.38
2022-11-25T19:48:27.119Z,98962.09
2022-11-25T19:50:59.892Z,98977.88
2022-11-25T19:53:33.106Z,98984.53
2022-11-25T19:56:04.822Z,98988.28
2022-11-25T19:58:32.185Z,98977.06
2022-11-25T20:01:04.447Z,98986.88
2022-11-25T20:03:31.863Z,98992.41
2022-11-25T20:05:59.274Z,99004.47
2022-11-25T20:08:28.888Z,99003.38
2022-11-25T20:10:57.350Z,98999.50
2022-11-25T20:13:25.986Z,99008.09
2022-11-25T20:15:55.489Z,99009.22
2022-11-25T20:18:24.555Z,99020.72
2022-11-25T20:21:00.806Z,99024.41
2022-11-25T20:23:43.759Z,99022.16
2022-11-25T20:26:32.342Z,99030.63
2022-11-25T20:28:59.304Z,99039.53
2022-11-25T20:31:30.558Z,99040.75
2022-11-25T20:33:58.094Z,99041.03
2022-11-25T20:36:33.292Z,99047.13
2022-11-25T20:39:02.572Z,99045.19
2022-11-25T20:41:30.664Z,99060.09
2022-11-25T20:43:58.534Z,99063.31
2022-11-25T20:46:32.095Z,99070.91
2022-11-25T20:49:27.433Z,99063.47
2022-11-25T20:51:55.596Z,99072.13
2022-11-25T20:54:24.534Z,99072.53
2022-11-25T20:56:51.889Z,99071.69
2022-11-25T20:59:22.962Z,99077.41
2022-11-25T21:01:51.093Z,99085.28
2022-11-25T21:04:18.559Z,99079.38
2022-11-25T21:06:46.336Z,99094.03
2022-11-25T21:09:23.367Z,99096.56
2022-11-25T21:11:50.741Z,99097.66
2022-11-25T21:14:19.910Z,99095.63
2022-11-25T21:16:47.744Z,99104.03
2022-11-25T21:19:15.242Z,99097.75
2022-11-25T21:21:45.991Z,99103.34
2022-11-25T21:24:35.305Z,99105.91
2022-11-25T21:27:13.946Z,99112.16
2022-11-25T21:29:43.348Z,99116.19
2022-11-25T21:32:25.389Z,99115.22
2022-11-25T21:34:54.866Z,99114.94
2022-11-25T21:37:36.600Z,99122.03
2022-11-25T21:40:07.901Z,99118.78
2022-11-25T21:42:35.276Z,99117.59
2022-11-25T21:45:02.234Z,99120.31
2022-11-25T21:47:30.702Z,99116.72
2022-11-25T21:49:58.528Z,99119.56
2022-11-25T21:52:27.520Z,99119.56
2022-11-25T21:54:54.696Z,99134.06
2022-11-25T21:57:27.906Z,99135.34
2022-11-25T21:59:54.863Z,99138.06
2022-11-25T22:02:24.056Z,99137.78
2022-11-25T22:04:51.820Z,99141.59
2022-11-25T22:07:18.883Z,99142.69
2022-11-25T22:09:46.275Z,99154.97
2022-11-25T22:12:34.310Z,99150.25
2022-11-25T22:15:04.337Z,99152.72
2022-11-25T22:17:31.374Z,99148.66
2022-11-25T22:19:58.728Z,99149.53
2022-11-25T22:22:25.652Z,99158.38
2022-11-25T22:24:52.729Z,99160.34
2022-11-25T22:27:26.191Z,99170.97
2022-11-25T22:29:54.125Z,99172.47
2022-11-25T22:32:21.674Z,99175.09
2022-11-25T22:34:49.068Z,99169.13
2022-11-25T22:37:24.146Z,99172.56
2022-11-25T22:39:51.373Z,99173.94
2022-11-25T22:42:30.986Z,99179.91
2022-11-25T22:45:00.904Z,99176.13
2022-11-25T22:47:37.570Z,99180.91
2022-11-25T22:50:14.447Z,99183.16
2022-11-25T22:52:41.746Z,99187.41
2022-11-25T22:55:19.735Z,99182.03
2022-11-25T22:57:48.327Z,99178.25
2022-11-25T23:00:24.516Z,99186.72
2022-11-25T23:02:54.750Z,99188.84
2022-11-25T23:05:34.983Z,99188.81
2022-11-25T23:08:24.152Z,99189.94
2022-11-25T23:10:52.876Z,99190.06
2022-11-25T23:13:22.864Z,99194.94
2022-11-25T23:15:59.587Z,99195.44
2022-11-25T23:18:38.132Z,99192.13
2022-11-25T23:21:23.973Z,99194.03
2022-11-25T23:23:51.125Z,99200.34
2022-11-25T23:26:18.498Z,99202.00
2022-11-25T23:28:46.023Z,99204.88
2022-11-25T23:31:14.975Z,99203.13
2022-11-25T23:33:45.235Z,99200.00
2022-11-25T23:36:18.889Z,99198.59
2022-11-25T23:38:52.027Z,99197.72
2022-11-25T23:41:27.882Z,99194.75
2022-11-25T23:43:55.358Z,99188.31
2022-11-25T23:46:32.766Z,99199.78
2022-11-25T23:49:03.286Z,99194.97
2022-11-25T23:51:30.908Z,99204.75
2022-11-25T23:53:58.730Z,99219.53
2022-11-25T23:56:28.090Z,99221.06
2022-11-25T23:58:55.028Z,99221.56
